createdAt,value
2022-10-10T00:04:31.092Z,63.60
2022-10-10T00:09:33.021Z,64.24
2022-10-10T00:14:34.383Z,64.17
2022-10-10T00:19:35.819Z,64.16
2022-10-10T00:24:37.354Z,63.96
2022-10-10T00:29:38.718Z,64.12
2022-10-10T00:34:40.084Z,63.93
2022-10-10T00:39:41.442Z,64.18
2022-10-10T00:44:44.915Z,64.30
2022-10-10T00:49:46.345Z,64.23
2022-10-10T00:54:47.709Z,64.21
2022-10-10T00:59:50.193Z,64.14
2022-10-10T01:04:51.702Z,64.36
2022-10-10T01:09:56.384Z,64.06
2022-10-10T01:15:12.813Z,64.46
2022-10-10T01:20:51.908Z,64.39
2022-10-10T01:26:09.890Z,64.72
2022-10-10T01:31:14.053Z,64.25
2022-10-10T01:36:18.047Z,64.99
2022-10-10T01:41:30.791Z,64.85
2022-10-10T01:46:32.559Z,64.60
2022-10-10T01:52:02.319Z,64.96
2022-10-10T01:57:16.067Z,64.77
2022-10-10T02:02:32.962Z,65.14
2022-10-10T02:08:01.254Z,65.23
2022-10-10T02:13:05.306Z,64.84
2022-10-10T02:18:09.849Z,64.91
2022-10-10T02:23:15.373Z,64.79
2022-10-10T02:28:23.870Z,65.49
2022-10-10T02:33:32.496Z,64.92
2022-10-10T02:38:34.273Z,64.99
2022-10-10T02:43:37.245Z,65.67
2022-10-10T02:48:38.788Z,65.54
2022-10-10T02:53:41.210Z,65.32
2022-10-10T02:58:42.583Z,65.65
2022-10-10T03:03:44.152Z,65.35
2022-10-10T03:08:45.548Z,66.04
2022-10-10T03:13:46.919Z,66.30
2022-10-10T03:18:48.460Z,65.45
2022-10-10T03:23:49.895Z,65.89
2022-10-10T03:28:51.712Z,65.63
2022-10-10T03:33:53.297Z,66.02
2022-10-10T03:38:54.727Z,66.21
2022-10-10T03:43:56.218Z,66.15
2022-10-10T03:48:57.658Z,66.44
2022-10-10T03:53:59.136Z,66.26
2022-10-10T03:59:03.596Z,66.01
2022-10-10T04:04:05.122Z,65.99
2022-10-10T04:09:06.513Z,66.04
2022-10-10T04:14:07.936Z,66.43
2022-10-10T04:19:09.479Z,66.59
2022-10-10T04:24:10.867Z,66.10
2022-10-10T04:29:12.251Z,66.83
2022-10-10T04:34:14.998Z,66.00
2022-10-10T04:39:16.380Z,66.67
2022-10-10T04:44:18.931Z,66.85
2022-10-10T04:49:20.379Z,66.40
2022-10-10T04:54:21.738Z,66.60
2022-10-10T04:59:23.202Z,66.28
2022-10-10T05:04:24.545Z,67.20
2022-10-10T05:09:26.049Z,66.40
2022-10-10T05:14:27.518Z,67.17
2022-10-10T05:19:28.879Z,67.29
2022-10-10T05:24:30.238Z,67.05
2022-10-10T05:29:31.731Z,66.20
2022-10-10T05:34:33.197Z,66.52
2022-10-10T05:39:35.198Z,66.90
2022-10-10T05:44:36.548Z,66.79
2022-10-10T05:49:37.900Z,66.07
2022-10-10T05:54:39.259Z,66.04
2022-10-10T05:59:40.608Z,66.33
2022-10-10T06:04:42.037Z,66.81
2022-10-10T06:09:43.427Z,66.26
2022-10-10T06:14:44.779Z,66.83
2022-10-10T06:19:46.196Z,66.23
2022-10-10T06:24:52.256Z,66.57
2022-10-10T06:29:54.454Z,66.45
2022-10-10T06:34:55.810Z,66.21
2022-10-10T06:39:57.259Z,65.97
2022-10-10T06:44:59.003Z,66.67
2022-10-10T06:50:00.356Z,66.16
2022-10-10T06:55:01.728Z,66.14
2022-10-10T07:00:04.421Z,66.35
2022-10-10T07:05:16.428Z,66.48
2022-10-10T07:10:17.809Z,66.55
2022-10-10T07:15:19.207Z,66.47
2022-10-10T07:20:20.625Z,66.55
2022-10-10T07:25:22.212Z,66.35
2022-10-10T07:30:24.964Z,66.02
2022-10-10T07:35:26.411Z,65.98
2022-10-10T07:40:27.760Z,66.10
2022-10-10T07:45:29.109Z,65.60
2022-10-10T07:50:30.606Z,65.49
2022-10-10T07:55:31.949Z,65.32
2022-10-10T08:00:35.525Z,65.02
2022-10-10T08:05:44.638Z,65.15
2022-10-10T08:10:46.067Z,65.05
2022-10-10T08:15:50.915Z,64.83
2022-10-10T08:21:05.805Z,64.20
2022-10-10T08:26:10.373Z,64.04
2022-10-10T08:31:14.372Z,64.15
2022-10-10T08:36:21.246Z,63.68
2022-10-10T08:41:44.139Z,63.93
2022-10-10T08:46:53.637Z,63.39
2022-10-10T08:52:01.450Z,63.18
2022-10-10T08:57:05.909Z,62.94
2022-10-10T09:02:43.748Z,62.25
2022-10-10T09:08:12.762Z,62.15
2022-10-10T09:13:32.354Z,61.93
2022-10-10T09:18:53.754Z,61.74
2022-10-10T09:24:02.438Z,61.50
2022-10-10T09:29:23.023Z,61.23
2022-10-10T09:34:55.095Z,60.92
2022-10-10T09:39:59.252Z,60.74
2022-10-10T09:45:01.379Z,60.01
2022-10-10T09:55:30.899Z,59.50
2022-10-10T10:00:37.283Z,59.16
2022-10-10T10:05:40.638Z,58.70
2022-10-10T10:10:42.075Z,58.52
2022-10-10T10:15:49.707Z,58.07
2022-10-10T10:20:54.549Z,57.95
2022-10-10T10:26:06.294Z,57.40
2022-10-10T10:31:32.484Z,57.19
2022-10-10T10:36:52.379Z,56.71
2022-10-10T10:42:09.936Z,56.40
2022-10-10T10:47:34.611Z,56.36
2022-10-10T10:53:00.090Z,56.01
2022-10-10T11:05:20.136Z,55.14
2022-10-10T11:09:49.163Z,55.33
2022-10-10T11:15:00.152Z,55.27
2022-10-10T11:20:33.276Z,55.33
2022-10-10T11:26:21.844Z,55.19
2022-10-10T11:31:44.931Z,55.49
2022-10-10T11:36:47.050Z,55.58
2022-10-10T11:42:02.787Z,55.32
2022-10-10T11:47:16.138Z,54.79
2022-10-10T11:52:38.432Z,54.56
2022-10-10T11:57:54.099Z,53.97
2022-10-10T12:02:57.824Z,54.03
2022-10-10T12:08:18.387Z,53.86
2022-10-10T12:13:57.129Z,53.77
2022-10-10T12:19:09.005Z,53.01
2022-10-10T12:24:14.079Z,51.86
2022-10-10T12:29:41.387Z,51.14
2022-10-10T12:34:42.842Z,51.12
2022-10-10T12:40:06.887Z,51.15
2022-10-10T12:45:33.239Z,50.34
2022-10-10T12:50:41.560Z,49.34
2022-10-10T12:55:48.607Z,49.27
2022-10-10T13:00:51.947Z,48.22
2022-10-10T13:05:55.898Z,48.17
2022-10-10T13:11:10.713Z,47.71
2022-10-10T13:16:15.096Z,47.52
2022-10-10T13:21:32.136Z,47.32
2022-10-10T13:26:36.374Z,47.81
2022-10-10T13:31:38.122Z,46.95
2022-10-10T13:36:39.833Z,46.45
2022-10-10T13:41:46.291Z,46.72
2022-10-10T13:46:47.788Z,47.03
2022-10-10T13:52:00.667Z,46.71
2022-10-10T13:57:04.980Z,46.90
2022-10-10T14:02:12.716Z,46.35
2022-10-10T14:07:20.681Z,46.46
2022-10-10T14:12:30.244Z,46.76
2022-10-10T14:17:31.678Z,47.08
2022-10-10T14:22:33.075Z,46.83
2022-10-10T14:27:37.081Z,47.08
2022-10-10T14:32:38.651Z,47.45
2022-10-10T14:37:40.249Z,47.36
2022-10-10T14:42:41.675Z,47.02
2022-10-10T14:47:43.102Z,47.08
2022-10-10T14:52:44.499Z,47.12
2022-10-10T14:57:46.193Z,46.89
2022-10-10T15:02:48.125Z,47.02
2022-10-10T15:07:53.427Z,47.18
2022-10-10T15:12:55.036Z,47.16
2022-10-10T15:17:58.592Z,47.27
2022-10-10T15:23:02.287Z,47.90
2022-10-10T15:28:04.689Z,48.13
2022-10-10T15:33:06.044Z,48.35
2022-10-10T15:38:07.395Z,48.33
2022-10-10T15:43:08.806Z,48.60
2022-10-10T15:48:10.177Z,48.88
2022-10-10T15:53:12.229Z,49.18
2022-10-10T15:58:14.645Z,49.70
2022-10-10T16:03:16.177Z,49.77
2022-10-10T16:08:18.879Z,50.41
2022-10-10T16:13:20.259Z,51.26
2022-10-10T16:18:21.600Z,51.84
2022-10-10T16:23:24.195Z,51.65
2022-10-10T16:28:25.638Z,52.14
2022-10-10T16:33:27.013Z,52.58
2022-10-10T16:38:28.361Z,52.86
2022-10-10T16:43:29.808Z,52.74
2022-10-10T16:48:31.592Z,53.09
2022-10-10T16:53:33.173Z,53.61
2022-10-10T16:58:36.552Z,53.35
2022-10-10T17:03:37.964Z,54.05
2022-10-10T17:08:39.783Z,54.79
2022-10-10T17:13:41.829Z,55.28
2022-10-10T17:18:43.883Z,55.53
2022-10-10T17:23:46.368Z,55.94
2022-10-10T17:28:49.552Z,56.37
2022-10-10T17:33:53.907Z,56.78
2022-10-10T17:38:56.904Z,57.29
2022-10-10T17:43:58.265Z,58.17
2022-10-10T17:48:59.638Z,59.70
2022-10-10T17:54:02.727Z,61.63
2022-10-10T17:59:06.553Z,62.47
2022-10-10T18:04:08.200Z,63.67
2022-10-10T18:09:10.677Z,64.48
2022-10-10T18:14:12.129Z,65.04
2022-10-10T18:19:13.492Z,65.53
2022-10-10T18:24:14.864Z,65.87
2022-10-10T18:29:16.286Z,67.20
2022-10-10T18:34:17.640Z,67.93
2022-10-10T18:39:19.533Z,69.08
2022-10-10T18:44:21.609Z,69.62
2022-10-10T18:49:24.998Z,69.99
2022-10-10T18:54:28.242Z,69.83
2022-10-10T18:59:29.675Z,70.27
2022-10-10T19:04:31.115Z,70.67
2022-10-10T19:09:34.116Z,70.93
2022-10-10T19:14:35.672Z,70.94
2022-10-10T19:19:37.088Z,70.49
2022-10-10T19:24:38.453Z,70.45
2022-10-10T19:29:39.797Z,70.32
2022-10-10T19:34:42.023Z,70.09
2022-10-10T19:39:43.414Z,70.10
2022-10-10T19:44:47.294Z,70.06
2022-10-10T19:49:49.033Z,70.21
2022-10-10T19:54:52.392Z,70.22
2022-10-10T19:59:53.878Z,70.08
2022-10-10T20:04:55.273Z,69.79
2022-10-10T20:09:57.472Z,69.68
2022-10-10T20:14:59.976Z,68.96
2022-10-10T20:20:01.523Z,69.22
2022-10-10T20:25:04.273Z,69.19
2022-10-10T20:30:06.421Z,68.70
2022-10-10T20:35:07.983Z,68.87
2022-10-10T20:40:09.960Z,68.74
2022-10-10T20:45:11.541Z,68.42
2022-10-10T20:50:12.941Z,67.98
2022-10-10T20:55:14.416Z,67.74
2022-10-10T21:00:16.224Z,67.87
2022-10-10T21:05:17.600Z,68.05
2022-10-10T21:10:18.986Z,68.25
2022-10-10T21:15:20.353Z,67.93
2022-10-10T21:20:21.704Z,67.79
2022-10-10T21:25:23.072Z,68.30
2022-10-10T21:30:26.261Z,68.30
2022-10-10T21:35:30.566Z,68.54
2022-10-10T21:40:32.013Z,68.37
2022-10-10T21:45:35.010Z,68.45
2022-10-10T21:50:36.864Z,68.13
2022-10-10T21:55:39.172Z,68.30
2022-10-10T22:00:40.659Z,68.52
2022-10-10T22:05:43.173Z,68.33
2022-10-10T22:10:45.424Z,68.40
2022-10-10T22:15:46.849Z,68.18
2022-10-10T22:20:48.250Z,68.38
2022-10-10T22:25:51.073Z,68.13
2022-10-10T22:30:52.564Z,67.74
2022-10-10T22:35:54.011Z,67.69
2022-10-10T22:40:55.498Z,67.40
2022-10-10T22:45:56.953Z,67.11
2022-10-10T22:51:03.579Z,67.13
2022-10-10T22:56:05.344Z,66.74
2022-10-10T23:01:10.214Z,66.73
2022-10-10T23:06:12.013Z,66.91
2022-10-10T23:11:13.402Z,67.09
2022-10-10T23:16:15.168Z,67.06
2022-10-10T23:21:16.681Z,67.43
2022-10-10T23:26:18.072Z,67.65
2022-10-10T23:31:19.748Z,67.30
2022-10-10T23:36:21.101Z,67.84
2022-10-10T23:41:22.723Z,67.53
2022-10-10T23:46:24.190Z,67.38
2022-10-10T23:51:29.269Z,67.08
2022-10-10T23:56:30.629Z,67.00
